createdAt,value
2023-03-22T00:01:30.980Z,8.00
2023-03-22T00:03:57.878Z,8.00
2023-03-22T00:06:25.175Z,8.00
2023-03-22T00:08:53.119Z,8.00
2023-03-22T00:11:21.088Z,8.00
2023-03-22T00:13:47.778Z,8.00
2023-03-22T00:16:15.155Z,8.00
2023-03-22T00:18:41.987Z,8.10
2023-03-22T00:21:13.267Z,8.10
2023-03-22T00:23:40.705Z,8.10
2023-03-22T00:26:08.664Z,8.10
2023-03-22T00:28:36.589Z,8.10
2023-03-22T00:31:04.246Z,8.20
2023-03-22T00:33:32.097Z,8.30
2023-03-22T00:36:01.289Z,8.20
2023-03-22T00:38:42.621Z,8.20
2023-03-22T00:41:19.040Z,8.10
2023-03-22T00:43:47.333Z,8.10
2023-03-22T00:46:15.791Z,8.00
2023-03-22T00:48:43.085Z,7.80
2023-03-22T00:51:10.870Z,7.70
2023-03-22T00:53:41.904Z,7.70
2023-03-22T00:56:10.774Z,7.70
2023-03-22T00:58:44.082Z,7.70
2023-03-22T01:01:14.092Z,7.80
2023-03-22T01:03:42.101Z,7.80
2023-03-22T01:06:10.543Z,7.90
2023-03-22T01:08:38.654Z,8.00
2023-03-22T01:11:07.095Z,8.10
2023-03-22T01:13:34.285Z,8.20
2023-03-22T01:16:01.144Z,8.20
2023-03-22T01:18:27.989Z,8.10
2023-03-22T01:20:54.751Z,8.10
2023-03-22T01:23:21.506Z,8.00
2023-03-22T01:25:48.321Z,8.00
2023-03-22T01:28:15.476Z,8.00
2023-03-22T01:30:42.661Z,8.00
2023-03-22T01:33:09.712Z,7.90
2023-03-22T01:35:36.906Z,7.80
2023-03-22T01:38:05.675Z,7.70
2023-03-22T01:40:35.996Z,7.70
2023-03-22T01:43:03.337Z,7.60
2023-03-22T01:45:35.698Z,7.50
2023-03-22T01:48:11.250Z,7.50
2023-03-22T01:50:42.557Z,7.50
2023-03-22T01:53:13.570Z,7.50
2023-03-22T01:55:41.395Z,7.50
2023-03-22T01:58:12.425Z,7.50
2023-03-22T02:00:49.429Z,7.60
2023-03-22T02:04:03.371Z,7.70
2023-03-22T02:06:32.342Z,7.70
2023-03-22T02:09:09.116Z,7.80
2023-03-22T02:11:41.497Z,7.80
2023-03-22T02:14:50.439Z,7.80
2023-03-22T02:17:44.453Z,7.80
2023-03-22T02:20:15.430Z,7.80
2023-03-22T02:23:00.879Z,7.80
2023-03-22T02:25:41.613Z,7.90
2023-03-22T02:28:29.597Z,7.90
2023-03-22T02:31:30.638Z,7.90
2023-03-22T02:34:18.059Z,7.70
2023-03-22T02:37:15.786Z,7.70
2023-03-22T02:40:14.530Z,7.60
2023-03-22T02:42:56.834Z,7.30
2023-03-22T02:45:29.574Z,7.20
2023-03-22T02:48:01.783Z,7.10
2023-03-22T02:50:30.782Z,7.10
2023-03-22T02:53:09.717Z,7.00
2023-03-22T02:55:39.532Z,6.90
2023-03-22T02:58:14.776Z,6.90
2023-03-22T03:00:43.165Z,6.90
2023-03-22T03:03:18.146Z,6.90
2023-03-22T03:05:50.910Z,7.00
2023-03-22T03:08:20.585Z,6.90
2023-03-22T03:10:48.261Z,6.80
2023-03-22T03:13:17.872Z,6.70
2023-03-22T03:15:53.893Z,6.50
2023-03-22T03:18:35.041Z,6.50
2023-03-22T03:21:24.594Z,6.30
2023-03-22T03:24:12.286Z,6.20
2023-03-22T03:27:00.882Z,6.10
2023-03-22T03:29:47.251Z,5.90
2023-03-22T03:32:28.423Z,5.80
2023-03-22T03:35:22.129Z,5.70
2023-03-22T03:37:53.672Z,5.70
2023-03-22T03:40:24.587Z,5.70
2023-03-22T03:42:54.191Z,5.70
2023-03-22T03:45:22.092Z,5.60
2023-03-22T03:47:56.831Z,5.70
2023-03-22T03:50:25.825Z,5.70
2023-03-22T03:52:54.237Z,5.60
2023-03-22T03:55:22.466Z,5.30
2023-03-22T03:57:49.399Z,5.20
2023-03-22T04:00:16.935Z,5.10
2023-03-22T04:03:05.748Z,5.10
2023-03-22T04:05:55.910Z,5.20
2023-03-22T04:08:23.074Z,5.20
2023-03-22T04:10:51.823Z,5.10
2023-03-22T04:13:24.590Z,5.20
2023-03-22T04:15:58.032Z,5.30
2023-03-22T04:18:24.923Z,5.40
2023-03-22T04:20:53.448Z,5.50
2023-03-22T04:23:23.033Z,5.60
2023-03-22T04:25:50.721Z,5.60
2023-03-22T04:28:26.325Z,5.50
2023-03-22T04:30:53.301Z,5.40
2023-03-22T04:33:22.873Z,5.50
2023-03-22T04:36:10.663Z,5.40
2023-03-22T04:38:51.104Z,5.40
2023-03-22T04:41:21.664Z,5.50
2023-03-22T04:43:51.636Z,5.40
2023-03-22T04:46:21.173Z,5.30
2023-03-22T04:48:53.411Z,5.30
2023-03-22T04:51:20.984Z,5.30
2023-03-22T04:54:06.209Z,5.40
2023-03-22T04:56:33.298Z,5.30
2023-03-22T04:59:00.023Z,5.20
2023-03-22T05:01:27.772Z,5.20
2023-03-22T05:04:04.612Z,5.30
2023-03-22T05:06:33.294Z,5.20
2023-03-22T05:09:16.152Z,5.10
2023-03-22T05:11:42.990Z,5.00
2023-03-22T05:14:20.168Z,5.10
2023-03-22T05:16:46.875Z,5.10
2023-03-22T05:19:16.291Z,5.10
2023-03-22T05:21:48.815Z,5.10
2023-03-22T05:24:15.518Z,5.00
2023-03-22T05:26:46.259Z,4.80
2023-03-22T05:29:13.317Z,4.70
2023-03-22T05:31:59.981Z,4.60
2023-03-22T05:34:35.245Z,4.40
2023-03-22T05:37:10.195Z,4.40
2023-03-22T05:39:49.429Z,4.50
2023-03-22T05:42:16.726Z,4.50
2023-03-22T05:44:43.497Z,4.50
2023-03-22T05:47:12.646Z,4.70
2023-03-22T05:49:48.582Z,4.80
2023-03-22T05:52:15.779Z,4.90
2023-03-22T05:55:02.742Z,5.00
2023-03-22T05:57:30.141Z,5.10
2023-03-22T05:59:58.149Z,5.30
2023-03-22T06:02:29.077Z,5.30
2023-03-22T06:04:55.995Z,5.30
2023-03-22T06:07:24.152Z,5.20
2023-03-22T06:09:54.282Z,5.20
2023-03-22T06:12:24.742Z,5.30
2023-03-22T06:15:04.810Z,5.30
2023-03-22T06:17:54.472Z,5.40
2023-03-22T06:20:25.776Z,5.50
2023-03-22T06:22:59.275Z,5.70
2023-03-22T06:25:26.005Z,5.70
2023-03-22T06:27:52.931Z,5.70
2023-03-22T06:30:20.473Z,5.80
2023-03-22T06:33:06.195Z,6.00
2023-03-22T06:35:37.025Z,6.10
2023-03-22T06:38:05.352Z,6.20
2023-03-22T06:40:32.651Z,6.30
2023-03-22T06:43:02.868Z,6.40
2023-03-22T06:45:33.481Z,6.50
2023-03-22T06:48:01.755Z,6.60
2023-03-22T06:51:04.132Z,6.80
2023-03-22T06:53:34.377Z,6.90
2023-03-22T06:56:02.705Z,7.00
2023-03-22T06:58:30.137Z,7.20
2023-03-22T07:00:58.120Z,7.50
2023-03-22T07:03:26.228Z,7.60
2023-03-22T07:06:11.844Z,7.80
2023-03-22T07:08:42.078Z,8.00
2023-03-22T07:11:10.259Z,8.20
2023-03-22T07:13:37.497Z,8.40
2023-03-22T07:16:10.317Z,8.60
2023-03-22T07:18:50.982Z,8.80
2023-03-22T07:21:17.827Z,9.00
2023-03-22T07:23:49.311Z,9.20
2023-03-22T07:26:18.296Z,9.40
2023-03-22T07:28:47.830Z,9.50
2023-03-22T07:31:15.613Z,9.70
2023-03-22T07:33:52.148Z,9.90
2023-03-22T07:36:23.802Z,10.00
2023-03-22T07:38:51.431Z,10.00
2023-03-22T07:41:25.724Z,10.20
2023-03-22T07:44:17.884Z,10.40
2023-03-22T07:46:55.989Z,10.30
2023-03-22T07:49:31.522Z,10.30
2023-03-22T07:52:09.469Z,10.30
2023-03-22T07:54:36.177Z,10.30
2023-03-22T07:57:06.784Z,10.30
2023-03-22T07:59:39.923Z,10.30
2023-03-22T08:02:08.414Z,10.30
2023-03-22T08:04:40.784Z,10.40
2023-03-22T08:07:13.774Z,10.40
2023-03-22T08:09:40.851Z,10.40
2023-03-22T08:12:07.610Z,10.50
2023-03-22T08:14:37.330Z,10.70
2023-03-22T08:17:08.511Z,10.70
2023-03-22T08:19:35.465Z,10.80
2023-03-22T08:22:02.362Z,10.90
2023-03-22T08:24:58.453Z,10.90
2023-03-22T08:27:29.043Z,10.90
2023-03-22T08:29:58.210Z,11.10
2023-03-22T08:32:24.925Z,11.20
2023-03-22T08:34:52.628Z,11.30
2023-03-22T08:37:20.347Z,11.30
2023-03-22T08:39:47.587Z,11.30
2023-03-22T08:42:24.820Z,11.40
2023-03-22T08:44:52.424Z,11.50
2023-03-22T08:47:21.058Z,11.70
2023-03-22T08:49:51.879Z,11.80
2023-03-22T08:52:28.271Z,11.80
2023-03-22T08:55:06.265Z,11.90
2023-03-22T08:58:05.245Z,12.00
2023-03-22T09:00:48.965Z,12.10
2023-03-22T09:03:36.568Z,12.10
2023-03-22T09:06:03.544Z,12.30
2023-03-22T09:08:35.289Z,12.30
2023-03-22T09:11:12.146Z,12.40
2023-03-22T09:13:39.253Z,12.40
2023-03-22T09:16:08.767Z,12.30
2023-03-22T09:18:39.741Z,12.20
2023-03-22T09:21:12.037Z,12.40
2023-03-22T09:23:56.395Z,12.40
2023-03-22T09:26:30.782Z,12.50
2023-03-22T09:28:57.489Z,12.30
2023-03-22T09:31:24.263Z,12.30
2023-03-22T09:34:01.933Z,12.50
2023-03-22T09:36:28.603Z,12.60
2023-03-22T09:38:56.332Z,12.70
2023-03-22T09:41:32.353Z,12.70
2023-03-22T09:44:05.256Z,12.80
2023-03-22T09:46:53.711Z,12.90
2023-03-22T09:49:26.120Z,13.00
2023-03-22T09:51:55.999Z,13.20
2023-03-22T09:54:38.447Z,13.10
2023-03-22T09:57:26.296Z,13.20
2023-03-22T10:00:16.368Z,13.00
2023-03-22T10:03:10.701Z,13.20
2023-03-22T10:05:45.280Z,13.30
2023-03-22T10:08:15.248Z,13.40
2023-03-22T10:10:43.127Z,13.60
2023-03-22T10:13:27.504Z,13.50
2023-03-22T10:15:57.134Z,13.60
2023-03-22T10:18:43.379Z,13.60
2023-03-22T10:21:12.768Z,13.50
2023-03-22T10:23:39.393Z,13.70
2023-03-22T10:26:08.803Z,13.90
2023-03-22T10:28:40.313Z,14.00
2023-03-22T10:31:10.651Z,14.10
2023-03-22T10:33:50.321Z,14.00
2023-03-22T10:36:23.451Z,14.10
2023-03-22T10:38:57.668Z,14.50
2023-03-22T10:41:27.449Z,14.50
2023-03-22T10:43:58.491Z,14.50
2023-03-22T10:46:28.812Z,14.50
2023-03-22T10:48:59.886Z,14.50
2023-03-22T10:51:32.347Z,14.30
2023-03-22T10:54:01.015Z,14.30
2023-03-22T10:56:28.073Z,14.30
2023-03-22T10:58:56.435Z,14.50
2023-03-22T11:01:36.820Z,14.60
2023-03-22T11:04:03.556Z,14.70
2023-03-22T11:06:36.921Z,14.60
2023-03-22T11:09:15.627Z,14.60
2023-03-22T11:11:53.406Z,14.70
2023-03-22T11:14:23.320Z,14.60
2023-03-22T11:16:59.526Z,14.70
2023-03-22T11:19:31.874Z,14.60
2023-03-22T11:21:59.813Z,14.70
2023-03-22T11:24:28.376Z,15.00
2023-03-22T11:27:22.836Z,15.00
2023-03-22T11:29:55.510Z,15.10
2023-03-22T11:32:35.463Z,15.20
2023-03-22T11:35:16.769Z,15.20
2023-03-22T11:37:45.823Z,15.10
2023-03-22T11:40:22.438Z,15.10
2023-03-22T11:42:55.431Z,15.30
2023-03-22T11:45:29.226Z,15.60
2023-03-22T11:48:05.053Z,15.60
2023-03-22T11:50:35.842Z,15.60
2023-03-22T11:53:04.367Z,15.70
2023-03-22T11:55:31.893Z,15.70
2023-03-22T11:57:58.802Z,15.80
2023-03-22T12:00:29.368Z,16.00
2023-03-22T12:03:04.722Z,15.90
2023-03-22T12:05:34.665Z,15.70
2023-03-22T12:08:11.837Z,15.80
2023-03-22T12:10:44.042Z,15.90
2023-03-22T12:13:32.953Z,15.80
2023-03-22T12:16:04.769Z,15.90
2023-03-22T12:18:46.441Z,15.70
2023-03-22T12:21:13.126Z,15.80
2023-03-22T12:23:39.872Z,16.00
2023-03-22T12:26:15.739Z,16.00
2023-03-22T12:29:03.609Z,15.90
2023-03-22T12:31:42.167Z,15.90
2023-03-22T12:34:18.049Z,15.90
2023-03-22T12:36:57.148Z,16.00
2023-03-22T12:39:31.495Z,16.30
2023-03-22T12:42:06.329Z,16.50
2023-03-22T12:44:38.060Z,16.60
2023-03-22T12:47:22.864Z,16.30
2023-03-22T12:50:03.832Z,16.30
2023-03-22T12:52:45.851Z,16.20
2023-03-22T12:55:25.353Z,16.40
2023-03-22T12:57:54.490Z,16.30
2023-03-22T13:00:55.557Z,16.40
2023-03-22T13:03:28.674Z,16.50
2023-03-22T13:06:05.906Z,16.60
2023-03-22T13:09:24.049Z,16.30
2023-03-22T13:12:26.186Z,16.30
2023-03-22T13:14:52.836Z,16.40
2023-03-22T13:17:22.522Z,16.30
2023-03-22T13:20:11.416Z,16.40
2023-03-22T13:22:38.174Z,16.40
2023-03-22T13:25:12.807Z,16.50
2023-03-22T13:27:51.219Z,16.40
2023-03-22T13:30:21.649Z,16.30
2023-03-22T13:32:56.250Z,16.50
2023-03-22T13:35:34.398Z,16.40
2023-03-22T13:38:03.654Z,16.30
2023-03-22T13:40:45.491Z,15.90
2023-03-22T13:43:29.662Z,16.00
2023-03-22T13:46:17.265Z,16.10
2023-03-22T13:48:46.877Z,16.20
2023-03-22T13:51:23.145Z,16.40
2023-03-22T13:54:07.321Z,16.60
2023-03-22T13:57:00.755Z,16.80
2023-03-22T13:59:27.692Z,17.30
2023-03-22T14:02:00.258Z,17.30
2023-03-22T14:04:47.451Z,17.50
2023-03-22T14:07:29.104Z,17.00
2023-03-22T14:10:01.269Z,16.60
2023-03-22T14:12:36.522Z,16.40
2023-03-22T14:15:06.635Z,16.20
2023-03-22T14:17:41.458Z,16.00
2023-03-22T14:20:14.183Z,15.80
